Arbutus, Maryland
Current Conditions -  °F | °C
As of 7:54 AM on Friday 19 Dec 2014 (Local Time) from KBWI Reporting Station
Overcast Overcast  
Wind Chill: 28°   Ceiling: 3100
Heat Index: 34°   Visibility: 10mi
Dew Point: 24°   Wind: 7mph
Humidity: 67%   Direction: 280°W
Pressure: 30.13"   Gusts: NA
Location:  39.2187°N, 76.722°W
Report Text: KBWI 191254Z 28006KT 10SM OVC031 01/M04 A3013 RMK AO2 SLP205 T00111044
Loading
Personal Weather Stations






























Interactive Weather Map New forecast layout! Learn more

10-Day Weather Forecast

Advertisements
Track Severe Weather on mobile